Time;durP1;ratioP1;P1;durP2;ratioP2;P2;SDS_P1;SDS_P2;PMS_P1;PMS_P2;Temp;Humidity;BMP_temperature;BMP_pressure;BME280_temperature;BME280_humidity;BME280_pressure;Samples;Min_cycle;Max_cycle;Signal;HPM_P1;HPM_P2
2021/05/09 00:01:20;;;;;;;1.07;1.00;;;;;;;12.47;51.45;100719.75;4937315;29;20446;-62
2021/05/09 00:03:46;;;;;;;1.13;0.83;;;;;;;12.47;51.63;100722.47;4937283;29;20468;-63
2021/05/09 00:06:13;;;;;;;1.30;1.10;;;;;;;12.43;52.07;100721.50;4937240;29;20447;-63
2021/05/09 00:08:39;;;;;;;0.63;0.60;;;;;;;12.32;52.50;100731.81;4936989;29;20890;-63
2021/05/09 00:11:05;;;;;;;1.00;0.80;;;;;;;12.29;51.70;100727.00;4937042;29;20511;-64
2021/05/09 00:13:31;;;;;;;1.70;0.73;;;;;;;12.27;52.20;100720.28;4936970;29;21044;-63
2021/05/09 00:15:58;;;;;;;2.20;1.40;;;;;;;12.33;51.97;100708.97;4936920;29;20967;-63
2021/05/09 00:18:25;;;;;;;1.40;1.07;;;;;;;12.40;51.89;100707.75;4937035;29;20451;-63
2021/05/09 00:20:50;;;;;;;2.27;2.10;;;;;;;12.41;52.88;100709.34;4936944;29;20444;-63
2021/05/09 00:23:18;;;;;;;0.80;0.80;;;;;;;12.47;51.46;100705.38;4936848;29;20491;-63
2021/05/09 00:25:44;;;;;;;5.33;1.63;;;;;;;12.54;51.11;100711.19;4936874;29;20964;-64
2021/05/09 00:28:10;;;;;;;1.80;1.43;;;;;;;12.54;51.86;100708.47;4936803;29;20494;-64
2021/05/09 00:30:36;;;;;;;2.60;1.23;;;;;;;12.52;53.45;100713.41;4936846;29;20452;-63
2021/05/09 00:33:02;;;;;;;1.37;1.10;;;;;;;12.53;53.16;100715.03;4936420;29;20495;-64
2021/05/09 00:35:28;;;;;;;1.10;1.03;;;;;;;12.57;52.48;100711.38;4936697;29;20890;-63
2021/05/09 00:37:54;;;;;;;1.70;1.13;;;;;;;12.58;52.85;100709.47;4936622;29;20489;-63
2021/05/09 00:40:21;;;;;;;0.80;0.77;;;;;;;12.60;52.80;100704.50;4936626;29;20906;-65
2021/05/09 00:42:47;;;;;;;1.63;0.97;;;;;;;12.58;54.31;100706.75;4936446;29;20464;-64
2021/05/09 00:45:13;;;;;;;1.40;1.30;;;;;;;12.55;53.55;100697.28;4936700;29;20839;-64
2021/05/09 00:47:39;;;;;;;1.50;1.27;;;;;;;12.55;53.66;100696.47;4936309;29;20984;-63
2021/05/09 00:50:06;;;;;;;1.07;0.90;;;;;;;12.55;54.05;100708.16;4936529;29;20448;-63
2021/05/09 00:52:36;;;;;;;4.43;1.30;;;;;;;12.52;53.09;100708.75;4936294;29;20491;-64
2021/05/09 00:55:05;;;;;;;1.20;0.80;;;;;;;12.56;53.20;100692.66;4936436;29;20455;-64
2021/05/09 00:57:34;;;;;;;1.80;1.00;;;;;;;12.47;54.61;100683.66;4936248;29;20455;-63
2021/05/09 01:00:02;;;;;;;1.17;0.87;;;;;;;12.41;53.69;100682.19;4936345;29;20459;-64
2021/05/09 01:02:29;;;;;;;1.27;0.90;;;;;;;12.39;53.31;100679.75;4936440;29;20468;-63
2021/05/09 01:04:56;;;;;;;1.90;1.30;;;;;;;12.39;53.46;100671.59;4935986;29;20991;-63
2021/05/09 01:07:22;;;;;;;1.53;1.20;;;;;;;12.32;53.81;100674.78;4936193;29;20498;-63
2021/05/09 01:09:48;;;;;;;2.07;1.30;;;;;;;12.31;54.12;100675.09;4936193;29;20815;-64
2021/05/09 01:12:15;;;;;;;2.80;1.10;;;;;;;12.35;55.15;100667.91;4936093;29;20527;-63
2021/05/09 01:14:42;;;;;;;0.93;0.83;;;;;;;12.36;54.19;100667.63;4936231;29;20445;-63
2021/05/09 01:17:09;;;;;;;1.53;1.23;;;;;;;12.36;54.79;100672.25;4936145;29;20504;-63
2021/05/09 01:19:36;;;;;;;2.00;0.93;;;;;;;12.41;54.74;100663.16;4935849;29;20955;-63
2021/05/09 01:22:03;;;;;;;1.00;0.70;;;;;;;12.46;54.50;100663.03;4935999;29;20447;-63
2021/05/09 01:24:29;;;;;;;1.27;0.83;;;;;;;12.47;54.73;100659.19;4936090;29;20459;-63
2021/05/09 01:26:56;;;;;;;2.80;1.33;;;;;;;12.48;54.38;100655.34;4936026;29;20886;-63
2021/05/09 01:29:21;;;;;;;1.77;1.63;;;;;;;12.45;55.02;100661.44;4935389;29;20982;-64
2021/05/09 01:31:48;;;;;;;1.83;1.50;;;;;;;12.43;54.04;100647.34;4935804;29;20607;-63
2021/05/09 01:34:14;;;;;;;1.23;0.93;;;;;;;12.34;54.40;100652.72;4935525;29;20443;-63
2021/05/09 01:36:40;;;;;;;2.33;1.30;;;;;;;12.30;55.14;100638.16;4935811;29;20443;-63
2021/05/09 01:39:07;;;;;;;0.80;0.67;;;;;;;12.30;55.18;100640.88;4935807;29;20862;-63
2021/05/09 01:41:34;;;;;;;1.37;1.10;;;;;;;12.37;54.48;100642.06;4935801;29;20502;-63
2021/05/09 01:44:00;;;;;;;3.37;1.50;;;;;;;12.32;54.32;100639.47;4935471;29;20988;-62
2021/05/09 01:46:26;;;;;;;0.90;0.80;;;;;;;12.35;54.94;100636.13;4935821;29;20452;-63
2021/05/09 01:48:52;;;;;;;1.90;1.17;;;;;;;12.38;55.65;100643.66;4935833;29;20447;-62
2021/05/09 01:51:18;;;;;;;1.03;0.80;;;;;;;12.41;55.55;100633.28;4935434;29;20563;-63
2021/05/09 01:53:45;;;;;;;3.27;1.30;;;;;;;12.43;55.13;100626.41;4935617;29;20478;-63
2021/05/09 01:56:14;;;;;;;1.20;1.10;;;;;;;12.52;54.36;100637.31;4935462;29;20852;-63
2021/05/09 01:58:40;;;;;;;2.20;1.13;;;;;;;12.57;55.45;100634.47;4935660;29;20556;-63
2021/05/09 02:01:06;;;;;;;2.10;1.47;;;;;;;12.58;54.68;100636.88;4935559;29;20448;-63
2021/05/09 02:03:32;;;;;;;2.40;1.20;;;;;;;12.60;55.56;100633.84;4935642;29;20455;-64
2021/05/09 02:05:57;;;;;;;2.20;1.37;;;;;;;12.66;54.23;100638.03;4935909;29;20448;-63
2021/05/09 02:08:24;;;;;;;2.90;1.07;;;;;;;12.65;54.41;100620.13;4935590;29;20448;-64
2021/05/09 02:10:51;;;;;;;1.30;1.10;;;;;;;12.68;55.60;100635.81;4937798;29;20447;-64
2021/05/09 02:13:17;;;;;;;1.53;1.00;;;;;;;12.67;55.25;100622.53;4939101;29;20846;-63
2021/05/09 02:15:43;;;;;;;1.40;1.30;;;;;;;12.73;54.29;100630.22;4938898;29;20451;-63
2021/05/09 02:18:09;;;;;;;1.30;1.00;;;;;;;12.75;54.64;100628.00;4939287;29;20455;-64
2021/05/09 02:20:35;;;;;;;1.60;1.13;;;;;;;12.77;55.13;100633.91;4939119;29;20455;-63
2021/05/09 02:23:01;;;;;;;1.17;1.07;;;;;;;12.81;55.24;100629.47;4939026;29;20467;-64
2021/05/09 02:25:27;;;;;;;2.20;1.27;;;;;;;12.78;55.35;100627.34;4938974;29;20502;-64
2021/05/09 02:27:54;;;;;;;2.00;1.17;;;;;;;12.78;55.01;100624.63;4938994;29;20460;-64
2021/05/09 02:30:22;;;;;;;1.40;1.27;;;;;;;12.78;54.45;100630.06;4938948;29;20443;-64
2021/05/09 02:32:48;;;;;;;2.70;1.10;;;;;;;12.77;54.92;100633.13;4938411;29;20546;-64
2021/05/09 02:35:14;;;;;;;3.80;1.10;;;;;;;12.70;55.04;100628.13;4938850;29;20435;-64
2021/05/09 02:37:40;;;;;;;1.00;0.93;;;;;;;12.68;55.32;100618.69;4938801;29;20447;-64
2021/05/09 02:40:07;;;;;;;1.80;1.17;;;;;;;12.58;55.84;100619.78;4938532;29;20455;-64
2021/05/09 02:42:34;;;;;;;1.77;1.30;;;;;;;12.52;56.20;100623.72;4938666;29;20467;-64
2021/05/09 02:45:00;;;;;;;0.90;0.90;;;;;;;12.49;57.16;100611.59;4938699;29;20448;-64
2021/05/09 02:47:30;;;;;;;1.40;1.10;;;;;;;12.52;56.95;100623.72;4938627;29;20526;-64
2021/05/09 02:49:57;;;;;;;2.80;1.10;;;;;;;12.60;55.47;100617.53;4938877;29;20510;-64
2021/05/09 02:52:23;;;;;;;1.90;1.23;;;;;;;12.63;55.98;100625.88;4938583;29;20498;-64
2021/05/09 02:54:49;;;;;;;1.47;1.10;;;;;;;12.65;56.33;100624.75;4938495;29;20443;-64
2021/05/09 02:57:15;;;;;;;1.00;1.00;;;;;;;12.54;57.16;100625.03;4938541;29;20482;-64
2021/05/09 02:59:41;;;;;;;1.90;1.20;;;;;;;12.58;57.57;100631.44;4938465;29;20455;-64
2021/05/09 03:02:07;;;;;;;1.47;0.90;;;;;;;12.57;58.94;100619.00;4938377;29;20534;-64
2021/05/09 03:04:34;;;;;;;2.40;1.63;;;;;;;12.55;57.43;100626.63;4938399;29;20459;-64
2021/05/09 03:07:00;;;;;;;2.67;1.00;;;;;;;12.54;57.65;100618.81;4937985;29;20957;-64
2021/05/09 03:09:26;;;;;;;1.63;1.03;;;;;;;12.56;57.37;100613.84;4938037;29;20455;-64
2021/05/09 03:11:52;;;;;;;1.10;1.10;;;;;;;12.53;58.73;100622.66;4938335;29;20492;-64
2021/05/09 03:14:18;;;;;;;1.20;1.00;;;;;;;12.48;58.38;100620.03;4938240;29;20466;-64
2021/05/09 03:16:44;;;;;;;1.30;1.17;;;;;;;12.41;59.25;100617.78;4937858;29;20443;-64
2021/05/09 03:19:10;;;;;;;2.60;1.50;;;;;;;12.41;58.13;100625.94;4938212;29;20454;-64
2021/05/09 03:21:40;;;;;;;2.30;0.83;;;;;;;12.34;59.34;100628.28;4938104;29;20884;-64
2021/05/09 03:24:07;;;;;;;1.53;1.43;;;;;;;12.30;59.96;100625.38;4938064;29;20487;-64
2021/05/09 03:26:33;;;;;;;2.30;1.77;;;;;;;12.16;60.28;100619.25;4937642;29;20949;-64
2021/05/09 03:28:59;;;;;;;1.20;1.03;;;;;;;12.07;59.42;100608.31;4937973;29;20479;-64
2021/05/09 03:31:25;;;;;;;2.20;1.40;;;;;;;12.02;59.60;100618.53;4937918;29;20894;-65
2021/05/09 03:33:51;;;;;;;2.07;1.57;;;;;;;11.99;59.68;100613.69;4937507;29;21039;-64
2021/05/09 03:36:17;;;;;;;0.97;0.80;;;;;;;11.86;59.81;100615.38;4938036;29;20444;-64
2021/05/09 03:38:44;;;;;;;1.10;1.00;;;;;;;11.78;60.46;100608.75;4937718;29;20445;-65
2021/05/09 03:41:10;;;;;;;1.00;0.90;;;;;;;11.72;60.86;100620.03;4937747;29;20452;-64
2021/05/09 03:43:35;;;;;;;1.43;1.33;;;;;;;11.62;62.24;100613.72;4937712;29;20471;-64
2021/05/09 03:46:01;;;;;;;1.63;1.13;;;;;;;11.59;63.53;100616.25;4937639;29;20456;-65
2021/05/09 03:48:27;;;;;;;1.27;1.10;;;;;;;11.57;64.56;100613.84;4937503;29;20925;-65
2021/05/09 03:50:53;;;;;;;1.57;1.37;;;;;;;11.57;65.17;100613.06;4937558;29;20447;-64
2021/05/09 03:53:19;;;;;;;1.87;1.40;;;;;;;11.53;65.35;100607.44;4937328;29;21027;-64
2021/05/09 03:55:46;;;;;;;1.53;0.90;;;;;;;11.50;65.16;100609.94;4937135;29;20984;-65
2021/05/09 03:58:12;;;;;;;0.63;0.63;;;;;;;11.47;65.35;100605.97;4937327;29;20455;-64
2021/05/09 04:00:38;;;;;;;1.37;0.90;;;;;;;11.49;64.47;100597.50;4937300;29;20447;-64
2021/05/09 04:03:18;;;;;;;1.20;1.03;;;;;;;11.52;65.53;100605.84;4936984;29;20464;-64
2021/05/09 04:05:46;;;;;;;6.03;1.33;;;;;;;11.50;65.60;100596.38;4937274;29;20432;-64
2021/05/09 04:08:12;;;;;;;1.13;1.00;;;;;;;11.52;65.00;100596.91;4936981;29;21016;-65
2021/05/09 04:10:38;;;;;;;1.43;0.90;;;;;;;11.56;65.11;100592.47;4937183;29;20443;-64
2021/05/09 04:13:05;;;;;;;0.70;0.67;;;;;;;11.60;66.11;100593.47;4936936;29;20491;-64
2021/05/09 04:15:30;;;;;;;1.50;1.37;;;;;;;11.65;63.83;100587.13;4937072;29;20448;-65
2021/05/09 04:17:56;;;;;;;0.80;0.67;;;;;;;11.68;65.05;100590.00;4937007;29;20452;-64
2021/05/09 04:20:22;;;;;;;2.57;1.13;;;;;;;11.75;63.70;100586.84;4937004;29;20448;-64
2021/05/09 04:22:48;;;;;;;2.00;1.70;;;;;;;11.75;64.02;100582.22;4936777;29;20467;-64
2021/05/09 04:25:14;;;;;;;1.43;1.00;;;;;;;11.76;63.31;100589.25;4936881;29;20455;-65
2021/05/09 04:27:40;;;;;;;2.43;1.47;;;;;;;11.67;63.39;100585.69;4936811;29;20443;-64
2021/05/09 04:30:09;;;;;;;0.83;0.80;;;;;;;11.59;63.35;100584.50;4936738;29;20448;-65
2021/05/09 04:32:35;;;;;;;0.97;0.73;;;;;;;11.58;63.58;100596.47;4936059;29;20866;-65
2021/05/09 04:35:01;;;;;;;0.83;0.80;;;;;;;11.55;64.04;100591.66;4936435;29;20447;-65
2021/05/09 04:37:27;;;;;;;1.90;0.87;;;;;;;11.57;64.61;100585.94;4936389;29;20474;-64
2021/05/09 04:39:53;;;;;;;0.80;0.60;;;;;;;11.58;64.98;100582.09;4936636;29;20506;-65
2021/05/09 04:42:19;;;;;;;0.80;0.80;;;;;;;11.59;66.04;100587.22;4936596;29;20460;-65
2021/05/09 04:44:44;;;;;;;1.10;1.00;;;;;;;11.66;66.88;100589.50;4936584;29;20499;-65
2021/05/09 04:47:11;;;;;;;1.07;0.90;;;;;;;11.73;65.93;100583.63;4936371;29;20452;-64
2021/05/09 04:49:37;;;;;;;0.87;0.80;;;;;;;11.86;63.21;100580.09;4936452;29;20444;-66
2021/05/09 04:52:03;;;;;;;1.17;0.90;;;;;;;11.98;63.15;100585.75;4936322;29;20491;-64
2021/05/09 04:54:29;;;;;;;0.60;0.60;;;;;;;12.02;65.18;100589.47;4936100;29;20492;-64
2021/05/09 04:56:55;;;;;;;2.00;1.53;;;;;;;12.14;64.34;100591.59;4936610;29;20458;-65
2021/05/09 04:59:21;;;;;;;1.50;0.83;;;;;;;12.24;62.84;100593.25;4936373;29;20448;-64
2021/05/09 05:01:47;;;;;;;1.60;1.50;;;;;;;12.37;62.57;100578.78;4936302;29;20856;-64
2021/05/09 05:04:14;;;;;;;1.23;1.13;;;;;;;12.45;62.29;100582.66;4936341;29;20470;-64
2021/05/09 05:06:40;;;;;;;1.43;1.10;;;;;;;12.49;62.80;100575.47;4936274;29;20448;-64
2021/05/09 05:09:06;;;;;;;0.80;0.67;;;;;;;12.57;62.11;100591.81;4936149;29;20466;-64
2021/05/09 05:11:32;;;;;;;1.50;1.10;;;;;;;12.75;61.06;100591.84;4936263;29;20451;-64
2021/05/09 05:13:58;;;;;;;0.93;0.73;;;;;;;12.88;61.05;100593.63;4936171;29;20471;-65
2021/05/09 05:16:24;;;;;;;7.13;1.00;;;;;;;13.00;61.82;100593.84;4935832;29;20833;-65
2021/05/09 05:18:50;;;;;;;1.43;1.23;;;;;;;13.09;60.01;100593.84;4936067;29;20956;-64
2021/05/09 05:21:17;;;;;;;0.80;0.67;;;;;;;13.34;60.05;100604.00;4935937;29;20447;-64
2021/05/09 05:23:43;;;;;;;1.27;0.80;;;;;;;13.51;59.88;100597.78;4935952;29;20475;-64
2021/05/09 05:26:08;;;;;;;2.00;0.90;;;;;;;13.65;58.74;100594.88;4936071;29;20463;-64
2021/05/09 05:28:35;;;;;;;2.30;1.20;;;;;;;13.80;58.12;100588.94;4935715;29;20467;-65
2021/05/09 05:31:01;;;;;;;1.40;1.13;;;;;;;13.87;59.06;100602.88;4935966;29;20443;-66
2021/05/09 05:33:29;;;;;;;1.30;0.80;;;;;;;13.93;58.25;100597.25;4951689;23;20498;-66
2021/05/09 05:35:56;;;;;;;4.10;1.00;;;;;;;13.93;58.35;100606.22;4935852;29;20471;-67
2021/05/09 05:38:23;;;;;;;1.50;1.00;;;;;;;13.91;57.78;100604.97;4935710;29;20447;-67
2021/05/09 05:40:53;;;;;;;1.27;0.90;;;;;;;13.87;58.42;100612.97;4935804;29;20447;-67
2021/05/09 05:43:19;;;;;;;1.10;0.80;;;;;;;13.85;59.35;100610.53;4935755;29;20464;-66
2021/05/09 05:45:45;;;;;;;1.03;0.80;;;;;;;13.76;60.58;100606.22;4938192;29;20460;-67
2021/05/09 05:48:11;;;;;;;1.00;0.90;;;;;;;13.75;60.20;100608.16;4939755;29;20874;-67
2021/05/09 05:50:38;;;;;;;1.53;1.40;;;;;;;13.74;59.39;100608.50;4939705;29;20454;-66
2021/05/09 05:53:04;;;;;;;1.67;1.23;;;;;;;13.73;60.13;100607.69;4939521;29;20491;-67
2021/05/09 05:55:31;;;;;;;0.83;0.60;;;;;;;13.70;61.56;100605.59;4939560;29;20498;-67
2021/05/09 05:57:57;;;;;;;1.50;1.03;;;;;;;13.73;59.97;100606.91;4939529;29;20459;-67
2021/05/09 06:00:23;;;;;;;1.20;0.93;;;;;;;13.75;60.42;100607.38;4939404;29;20866;-68
2021/05/09 06:02:49;;;;;;;0.97;0.90;;;;;;;13.81;59.90;100600.63;4939396;29;20463;-67
2021/05/09 06:05:15;;;;;;;0.83;0.70;;;;;;;13.94;59.92;100612.47;4939413;29;20447;-67
2021/05/09 06:07:41;;;;;;;0.97;0.87;;;;;;;14.03;59.33;100613.25;4939315;29;20450;-67
2021/05/09 06:10:08;;;;;;;1.20;1.00;;;;;;;14.14;59.82;100614.50;4939330;29;20941;-67
2021/05/09 06:12:35;;;;;;;0.83;0.83;;;;;;;14.18;60.41;100610.03;4938804;29;21039;-67
2021/05/09 06:15:01;;;;;;;1.80;1.13;;;;;;;14.14;60.24;100609.88;4939168;29;20832;-67
2021/05/09 06:17:27;;;;;;;7.53;0.80;;;;;;;14.15;60.70;100605.22;4938969;29;20443;-67
2021/05/09 06:19:53;;;;;;;2.43;1.13;;;;;;;14.27;58.69;100597.16;4938936;29;20456;-68
2021/05/09 06:22:19;;;;;;;1.27;1.17;;;;;;;14.28;59.06;100598.75;4939073;29;20444;-68
2021/05/09 06:24:44;;;;;;;1.33;1.03;;;;;;;14.47;58.23;100601.09;4938763;29;20460;-67
2021/05/09 06:27:10;;;;;;;0.90;0.90;;;;;;;14.58;59.11;100601.59;4938975;29;20506;-68
2021/05/09 06:29:37;;;;;;;1.10;0.80;;;;;;;14.77;58.74;100610.13;4938960;29;20478;-68
2021/05/09 06:32:04;;;;;;;1.77;1.67;;;;;;;14.91;57.16;100603.66;4938846;29;20546;-68
2021/05/09 06:34:30;;;;;;;1.07;0.63;;;;;;;15.03;56.14;100598.28;4938573;29;20479;-67
2021/05/09 06:36:56;;;;;;;1.10;0.63;;;;;;;15.24;56.87;100603.78;4938808;29;20443;-67
2021/05/09 06:39:26;;;;;;;1.33;0.97;;;;;;;15.39;56.17;100608.63;4938721;29;20458;-68
2021/05/09 06:41:52;;;;;;;1.73;0.87;;;;;;;15.49;57.24;100608.22;4938775;29;20431;-67
2021/05/09 06:44:18;;;;;;;1.47;0.80;;;;;;;15.61;56.24;100615.69;4938409;29;21004;-67
2021/05/09 06:46:45;;;;;;;0.83;0.83;;;;;;;15.61;56.00;100610.22;4938341;29;20925;-68
2021/05/09 06:49:11;;;;;;;1.40;0.93;;;;;;;15.60;56.07;100601.25;4938639;29;20451;-67
2021/05/09 06:51:37;;;;;;;1.13;0.90;;;;;;;15.74;55.52;100602.94;4938166;29;20451;-68
2021/05/09 06:54:04;;;;;;;1.20;1.00;;;;;;;15.89;55.13;100602.28;4938466;29;20482;-68
2021/05/09 06:56:31;;;;;;;0.80;0.70;;;;;;;16.01;56.15;100602.34;4939026;29;20459;-67
2021/05/09 06:58:57;;;;;;;1.07;0.97;;;;;;;16.07;53.22;100594.72;4939464;29;20490;-67
2021/05/09 07:01:23;;;;;;;1.47;0.80;;;;;;;16.26;54.02;100599.66;4938290;29;20821;-67
2021/05/09 07:03:51;;;;;;;0.67;0.67;;;;;;;16.36;53.97;100594.56;4938257;29;20490;-66
2021/05/09 07:06:17;;;;;;;3.83;1.03;;;;;;;16.44;52.49;100592.06;4938416;29;20831;-68
2021/05/09 07:08:43;;;;;;;0.80;0.60;;;;;;;16.56;51.46;100605.75;4938260;29;20448;-67
2021/05/09 07:11:09;;;;;;;0.80;0.80;;;;;;;16.62;53.05;100593.44;4938025;29;20992;-67
2021/05/09 07:13:35;;;;;;;3.17;1.00;;;;;;;16.71;52.15;100602.34;4938088;29;20503;-67
2021/05/09 07:16:00;;;;;;;3.13;0.90;;;;;;;16.73;53.15;100589.13;4938145;29;20507;-68
2021/05/09 07:18:28;;;;;;;1.37;0.83;;;;;;;16.78;52.47;100591.66;4938088;29;20455;-67
2021/05/09 07:20:57;;;;;;;1.47;0.70;;;;;;;16.87;52.48;100584.13;4938108;29;20892;-67
2021/05/09 07:23:24;;;;;;;0.60;0.57;;;;;;;16.77;54.49;100590.03;4937868;29;20913;-67
2021/05/09 07:25:50;;;;;;;0.80;0.80;;;;;;;16.85;53.29;100594.59;4937652;29;20506;-68
2021/05/09 07:28:17;;;;;;;0.60;0.53;;;;;;;16.87;53.19;100586.88;4938027;29;20447;-68
2021/05/09 07:30:44;;;;;;;2.23;1.00;;;;;;;16.96;53.15;100583.22;4937541;29;20953;-68
2021/05/09 07:33:12;;;;;;;1.70;1.10;;;;;;;17.10;51.73;100581.69;4937510;29;20880;-68
2021/05/09 07:35:38;;;;;;;0.77;0.57;;;;;;;17.22;53.23;100574.59;4937763;29;20941;-68
2021/05/09 07:38:06;;;;;;;0.93;0.60;;;;;;;17.32;52.79;100566.69;4937720;29;20452;-68
2021/05/09 07:40:33;;;;;;;0.80;0.70;;;;;;;17.47;52.24;100572.59;4937642;29;20802;-68
2021/05/09 07:42:59;;;;;;;0.90;0.63;;;;;;;17.56;52.60;100581.44;4937538;29;21004;-68
2021/05/09 07:45:25;;;;;;;1.07;0.63;;;;;;;17.71;52.02;100579.91;4937579;29;20448;-68
2021/05/09 07:47:51;;;;;;;0.90;0.70;;;;;;;17.80;51.83;100581.38;4937578;29;20439;-68
2021/05/09 07:50:20;;;;;;;0.50;0.30;;;;;;;17.88;51.87;100587.84;4936966;29;20523;-68
2021/05/09 07:52:47;;;;;;;1.03;0.93;;;;;;;17.96;51.03;100573.19;4937411;29;20586;-69
2021/05/09 07:55:15;;;;;;;1.47;0.60;;;;;;;18.08;51.25;100586.81;4937581;29;20518;-68
2021/05/09 07:57:41;;;;;;;1.70;0.90;;;;;;;18.12;50.02;100581.44;4937399;29;20455;-67
2021/05/09 08:00:11;;;;;;;1.13;0.73;;;;;;;18.15;50.77;100575.25;4937203;29;20858;-68
2021/05/09 08:02:37;;;;;;;1.03;0.77;;;;;;;18.19;51.14;100581.59;4937299;29;20821;-68
2021/05/09 08:05:04;;;;;;;1.43;0.73;;;;;;;18.22;51.53;100575.44;4937225;29;20444;-68
2021/05/09 08:07:30;;;;;;;1.47;1.17;;;;;;;18.29;51.34;100572.09;4936478;29;20447;-69
2021/05/09 08:09:56;;;;;;;0.63;0.63;;;;;;;18.32;51.48;100572.16;4937163;29;20448;-68
2021/05/09 08:12:23;;;;;;;1.90;0.97;;;;;;;18.35;51.40;100568.72;4936854;29;20509;-67
2021/05/09 08:14:49;;;;;;;1.50;0.60;;;;;;;18.40;51.18;100576.66;4936928;29;20511;-68
2021/05/09 08:17:15;;;;;;;2.50;0.73;;;;;;;18.44;51.59;100576.75;4936521;29;20946;-68
2021/05/09 08:19:41;;;;;;;0.87;0.87;;;;;;;18.50;51.31;100577.28;4936853;29;20443;-68
2021/05/09 08:22:07;;;;;;;1.37;0.60;;;;;;;18.63;50.37;100579.56;4936647;29;20440;-68
2021/05/09 08:24:33;;;;;;;0.80;0.60;;;;;;;18.77;50.74;100576.44;4936796;29;20467;-66
2021/05/09 08:26:59;;;;;;;0.93;0.63;;;;;;;18.93;50.02;100570.09;4936805;29;20466;-69
2021/05/09 08:29:26;;;;;;;1.10;0.60;;;;;;;18.99;50.24;100569.47;4936721;29;20494;-67
2021/05/09 08:31:53;;;;;;;1.37;0.87;;;;;;;19.12;50.47;100568.19;4936657;29;20454;-67
2021/05/09 08:34:19;;;;;;;0.80;0.77;;;;;;;19.24;49.54;100566.47;4936129;29;20490;-67
2021/05/09 08:36:45;;;;;;;0.80;0.70;;;;;;;19.31;48.96;100561.91;4936542;29;20942;-67
2021/05/09 08:39:11;;;;;;;0.60;0.60;;;;;;;19.43;49.69;100555.47;4936346;29;20452;-67
2021/05/09 08:41:39;;;;;;;0.50;0.50;;;;;;;19.51;48.67;100554.47;4937139;29;20452;-67
2021/05/09 08:44:07;;;;;;;0.87;0.77;;;;;;;19.56;49.89;100548.66;4936929;29;20468;-67
2021/05/09 08:46:34;;;;;;;1.47;0.97;;;;;;;19.63;49.44;100542.56;4936265;29;20979;-68
2021/05/09 08:49:02;;;;;;;0.60;0.60;;;;;;;19.76;49.09;100552.25;4936530;29;20455;-67
2021/05/09 08:51:28;;;;;;;1.20;1.00;;;;;;;19.89;49.48;100544.63;4936075;29;20957;-66
2021/05/09 08:53:55;;;;;;;0.93;0.63;;;;;;;19.97;48.76;100551.06;4936304;29;20496;-67
2021/05/09 08:56:22;;;;;;;1.07;0.60;;;;;;;19.94;49.95;100549.03;4936351;29;20451;-67
2021/05/09 08:58:48;;;;;;;1.07;0.70;;;;;;;19.89;51.25;100550.13;4936324;29;20447;-66
2021/05/09 09:01:14;;;;;;;1.17;0.80;;;;;;;19.97;49.38;100554.59;4936416;29;20510;-67
2021/05/09 09:03:41;;;;;;;0.70;0.70;;;;;;;20.18;49.54;100551.41;4936402;29;20464;-67
2021/05/09 09:06:11;;;;;;;1.23;0.90;;;;;;;20.30;49.86;100547.69;4936175;29;20447;-67
2021/05/09 09:08:49;;;;;;;1.20;1.00;;;;;;;20.41;48.57;100546.69;4936298;29;20432;-67
2021/05/09 09:11:23;;;;;;;0.70;0.70;;;;;;;20.52;46.61;100555.16;4935855;29;20416;-67
2021/05/09 09:14:07;;;;;;;0.60;0.60;;;;;;;20.66;47.39;100540.81;4935900;29;20491;-67
2021/05/09 09:16:33;;;;;;;0.60;0.60;;;;;;;20.84;45.62;100550.13;4935991;29;20440;-67
2021/05/09 09:19:07;;;;;;;0.60;0.50;;;;;;;20.94;46.67;100543.19;4935841;29;20515;-67
2021/05/09 09:21:33;;;;;;;0.70;0.70;;;;;;;20.94;47.70;100547.88;4935978;29;20473;-67
2021/05/09 09:24:04;;;;;;;0.67;0.50;;;;;;;21.02;47.50;100546.81;4936028;29;20969;-68
2021/05/09 09:26:32;;;;;;;0.80;0.60;;;;;;;21.14;46.16;100541.09;4936052;29;20432;-67
2021/05/09 09:29:00;;;;;;;0.90;0.80;;;;;;;21.26;45.63;100549.13;4935951;29;20454;-67
2021/05/09 09:31:40;;;;;;;1.30;0.77;;;;;;;21.40;46.14;100543.03;4935727;29;20805;-68
2021/05/09 09:34:07;;;;;;;3.13;1.03;;;;;;;21.51;45.65;100524.63;4935390;29;20470;-68
2021/05/09 09:36:33;;;;;;;0.80;0.70;;;;;;;21.55;46.68;100539.25;4935897;29;20521;-67
2021/05/09 09:38:59;;;;;;;1.07;0.97;;;;;;;21.63;46.62;100531.84;4935868;29;20458;-67
2021/05/09 09:41:26;;;;;;;0.67;0.57;;;;;;;21.75;45.77;100531.59;4935824;29;20887;-66
2021/05/09 09:44:07;;;;;;;1.10;0.90;;;;;;;21.83;46.18;100533.25;4935689;29;20467;-66
2021/05/09 09:46:35;;;;;;;1.10;0.53;;;;;;;21.91;47.00;100534.09;4935833;29;20458;-66
2021/05/09 09:49:03;;;;;;;1.00;0.60;;;;;;;21.93;45.53;100531.78;4935789;29;20460;-66
2021/05/09 09:51:48;;;;;;;1.00;0.73;;;;;;;21.99;46.74;100524.72;4935669;29;20461;-68
2021/05/09 09:54:35;;;;;;;0.70;0.60;;;;;;;21.85;47.30;100519.09;4935238;29;20985;-66
2021/05/09 09:57:02;;;;;;;0.70;0.60;;;;;;;21.96;45.10;100527.44;4935695;29;20432;-67
2021/05/09 09:59:29;;;;;;;0.73;0.73;;;;;;;22.04;46.20;100527.13;4935402;29;20451;-65
2021/05/09 10:01:56;;;;;;;0.80;0.80;;;;;;;22.18;44.45;100518.25;4935573;29;20820;-68
2021/05/09 10:04:22;;;;;;;1.50;0.77;;;;;;;22.32;45.10;100520.31;4935526;29;20475;-68
2021/05/09 10:06:49;;;;;;;0.97;0.70;;;;;;;22.42;46.31;100522.38;4935269;29;20538;-68
2021/05/09 10:09:16;;;;;;;1.17;0.80;;;;;;;22.34;47.36;100518.75;4935411;29;20808;-68
2021/05/09 10:11:42;;;;;;;0.90;0.60;;;;;;;22.40;45.85;100517.22;4935315;29;21020;-68
2021/05/09 10:14:08;;;;;;;1.40;0.63;;;;;;;22.53;45.42;100503.88;4935332;29;20499;-68
2021/05/09 10:16:37;;;;;;;1.00;0.70;;;;;;;22.72;45.11;100518.63;4935616;29;20502;-68
2021/05/09 10:19:05;;;;;;;1.77;1.07;;;;;;;22.75;46.17;100510.34;4935561;29;20451;-68
2021/05/09 10:21:33;;;;;;;1.00;0.60;;;;;;;22.81;45.21;100497.75;4935517;29;20444;-66
2021/05/09 10:24:11;;;;;;;0.80;0.60;;;;;;;22.92;46.31;100504.16;4935400;29;20547;-69
2021/05/09 10:26:45;;;;;;;0.80;0.80;;;;;;;22.96;45.65;100504.19;4935496;29;20554;-67
2021/05/09 10:29:59;;;;;;;2.20;0.70;;;;;;;22.95;44.93;100496.28;4935454;29;20432;-68
2021/05/09 10:32:49;;;;;;;4.20;0.70;;;;;;;23.07;42.26;100502.28;4938130;29;20519;-69
2021/05/09 10:35:17;;;;;;;0.90;0.50;;;;;;;23.15;43.29;100494.78;4939049;29;20459;-68
2021/05/09 10:38:03;;;;;;;1.00;0.70;;;;;;;23.23;43.62;100490.88;4938547;29;21020;-69
2021/05/09 10:40:34;;;;;;;0.53;0.40;;;;;;;23.39;42.29;100483.03;4938902;29;20526;-68
2021/05/09 10:43:37;;;;;;;1.10;0.73;;;;;;;23.62;44.06;100484.66;4938761;29;20471;-69
2021/05/09 10:46:04;;;;;;;0.70;0.67;;;;;;;23.89;44.04;100479.56;4938561;29;20525;-69
2021/05/09 10:48:33;;;;;;;0.80;0.77;;;;;;;24.03;43.58;100478.78;4938529;29;20538;-69
2021/05/09 10:51:30;;;;;;;0.60;0.60;;;;;;;24.19;42.45;100476.41;4938171;29;20953;-69
2021/05/09 10:54:17;;;;;;;0.60;0.50;;;;;;;24.25;41.89;100476.81;4938399;29;20581;-69
2021/05/09 10:56:44;;;;;;;0.80;0.80;;;;;;;24.27;42.85;100477.22;4938580;29;20444;-69
2021/05/09 10:59:10;;;;;;;0.60;0.50;;;;;;;24.44;43.16;100476.44;4938462;29;20459;-69
2021/05/09 11:01:36;;;;;;;0.97;0.70;;;;;;;24.53;42.35;100464.94;4938728;29;20522;-69
2021/05/09 11:04:04;;;;;;;0.87;0.50;;;;;;;24.58;41.01;100467.31;4938249;29;20607;-69
2021/05/09 11:06:50;;;;;;;1.20;0.87;;;;;;;24.66;41.05;100466.88;4938322;29;20459;-69
2021/05/09 11:09:35;;;;;;;0.80;0.50;;;;;;;24.69;39.00;100473.59;4938385;29;20435;-69
2021/05/09 11:12:07;;;;;;;2.60;0.67;;;;;;;24.86;40.97;100467.19;4937710;29;20977;-68
2021/05/09 11:14:38;;;;;;;0.97;0.70;;;;;;;25.31;40.75;100467.41;4938131;29;20452;-68
2021/05/09 11:17:17;;;;;;;1.10;0.67;;;;;;;26.09;38.68;100468.09;4938179;29;20820;-68
2021/05/09 11:19:49;;;;;;;0.83;0.73;;;;;;;27.26;38.40;100468.84;4938209;29;20440;-68
2021/05/09 11:22:23;;;;;;;1.23;1.13;;;;;;;28.37;36.35;100467.13;4937282;29;20463;-68
2021/05/09 11:24:58;;;;;;;0.67;0.67;;;;;;;28.80;34.39;100464.31;4938051;29;20436;-68
2021/05/09 11:27:25;;;;;;;0.73;0.60;;;;;;;29.25;34.57;100461.00;4938015;29;20486;-68